createdAt,value
2023-02-21T06:03:06.942Z,505.00
2023-02-21T06:04:06.896Z,502.00
2023-02-21T06:05:07.886Z,500.00
2023-02-21T06:06:07.929Z,499.00
2023-02-21T06:07:07.956Z,500.00
2023-02-21T06:08:09.147Z,501.00
2023-02-21T06:09:07.951Z,501.00
2023-02-21T06:10:07.949Z,503.00
2023-02-21T06:11:07.945Z,501.00
2023-02-21T06:12:07.926Z,502.00
2023-02-21T06:13:06.915Z,502.00
2023-02-21T06:14:07.911Z,503.00
2023-02-21T06:15:06.910Z,503.00
2023-02-21T06:16:07.917Z,502.00
2023-02-21T06:17:07.900Z,503.00
2023-02-21T06:18:06.880Z,502.00
2023-02-21T06:19:06.903Z,503.00
2023-02-21T06:20:06.865Z,503.00
2023-02-21T06:21:06.894Z,498.00
2023-02-21T06:22:06.854Z,499.00
2023-02-21T06:23:06.849Z,500.00
2023-02-21T06:24:06.832Z,500.00
2023-02-21T06:25:07.829Z,502.00
2023-02-21T06:26:07.826Z,500.00
2023-02-21T06:27:06.816Z,500.00
2023-02-21T06:28:06.810Z,499.00
2023-02-21T06:29:07.809Z,500.00
2023-02-21T06:30:07.846Z,498.00
2023-02-21T06:31:07.829Z,497.00
2023-02-21T06:32:07.816Z,498.00
2023-02-21T06:33:07.769Z,499.00
2023-02-21T06:34:07.767Z,500.00
2023-02-21T06:35:07.797Z,503.00
2023-02-21T06:36:06.760Z,502.00
2023-02-21T06:37:07.751Z,500.00
2023-02-21T06:38:06.740Z,500.00
2023-02-21T06:39:06.727Z,502.00
2023-02-21T06:40:07.728Z,503.00
2023-02-21T06:41:07.712Z,503.00
2023-02-21T06:42:07.722Z,502.00
2023-02-21T06:43:06.695Z,500.00
2023-02-21T06:44:07.680Z,501.00
2023-02-21T06:45:06.688Z,501.00
2023-02-21T06:46:07.716Z,502.00
2023-02-21T06:47:06.673Z,499.00
2023-02-21T06:48:06.656Z,499.00
2023-02-21T06:49:06.661Z,501.00
2023-02-21T06:50:10.136Z,503.00
2023-02-21T06:51:07.654Z,504.00
2023-02-21T06:52:07.641Z,505.00
2023-02-21T06:53:07.619Z,506.00
2023-02-21T06:54:07.624Z,507.00
2023-02-21T06:55:07.609Z,510.00
2023-02-21T06:56:07.610Z,509.00
2023-02-21T06:58:07.593Z,502.00
2023-02-21T06:59:07.579Z,503.00
2023-02-21T07:00:07.578Z,502.00
2023-02-21T07:01:07.571Z,504.00
2023-02-21T07:02:07.571Z,503.00
2023-02-21T07:03:07.989Z,507.00
2023-02-21T07:04:07.556Z,507.00
2023-02-21T07:05:07.568Z,507.00
2023-02-21T07:06:07.541Z,508.00
2023-02-21T07:07:07.574Z,510.00
2023-02-21T07:08:07.538Z,511.00
2023-02-21T07:09:07.555Z,507.00
2023-02-21T07:11:06.548Z,509.00
2023-02-21T07:16:06.488Z,513.00
2023-02-21T07:18:06.447Z,519.00
2023-02-21T07:20:07.436Z,520.00
2023-02-21T07:21:07.429Z,525.00
2023-02-21T07:22:07.429Z,528.00
2023-02-21T07:23:07.796Z,531.00
2023-02-21T07:25:07.416Z,536.00
2023-02-21T07:26:07.383Z,541.00
2023-02-21T07:27:07.385Z,542.00
2023-02-21T07:28:07.395Z,544.00
2023-02-21T07:29:06.501Z,548.00
2023-02-21T07:30:07.372Z,549.00
2023-02-21T07:31:07.371Z,554.00
2023-02-21T07:32:07.396Z,561.00
2023-02-21T07:33:07.341Z,568.00
2023-02-21T07:34:07.326Z,571.00
2023-02-21T07:35:06.308Z,575.00
2023-02-21T07:36:07.312Z,580.00
2023-02-21T07:37:07.309Z,585.00
2023-02-21T07:38:06.290Z,588.00
2023-02-21T07:39:07.312Z,593.00
2023-02-21T07:40:07.288Z,597.00
2023-02-21T07:41:07.276Z,598.00
2023-02-21T07:42:07.270Z,603.00
2023-02-21T07:43:06.266Z,609.00
2023-02-21T07:44:07.243Z,619.00
2023-02-21T07:45:06.313Z,627.00
2023-02-21T07:46:07.364Z,628.00
2023-02-21T07:47:07.379Z,636.00
2023-02-21T07:49:06.460Z,661.00
2023-02-21T07:50:07.527Z,677.00
2023-02-21T07:51:07.571Z,693.00
2023-02-21T07:53:06.661Z,717.00
2023-02-21T07:54:07.736Z,733.00
2023-02-21T07:55:07.805Z,741.00
2023-02-21T07:56:07.853Z,764.00
2023-02-21T07:57:07.888Z,774.00
2023-02-21T07:58:07.984Z,792.00
2023-02-21T07:59:07.978Z,812.00
2023-02-21T08:00:08.057Z,825.00
2023-02-21T08:01:08.090Z,828.00
2023-02-21T08:02:07.140Z,830.00
2023-02-21T08:04:08.249Z,836.00
2023-02-21T08:05:07.347Z,846.00
2023-02-21T08:06:08.343Z,848.00
2023-02-21T08:07:08.411Z,852.00
2023-02-21T08:08:08.453Z,855.00
2023-02-21T08:09:08.477Z,858.00
2023-02-21T08:10:08.521Z,855.00
2023-02-21T08:11:07.613Z,855.00
2023-02-21T08:13:07.666Z,858.00
2023-02-21T08:15:08.760Z,871.00
2023-02-21T08:16:08.837Z,874.00
2023-02-21T08:17:08.876Z,876.00
2023-02-21T08:18:11.219Z,883.00
2023-02-21T08:19:07.897Z,892.00
2023-02-21T08:20:07.891Z,894.00
2023-02-21T08:21:07.885Z,896.00
2023-02-21T08:22:08.953Z,898.00
2023-02-21T08:23:08.881Z,902.00
2023-02-21T08:24:08.877Z,912.00
2023-02-21T08:25:07.866Z,922.00
2023-02-21T08:26:08.868Z,920.00
2023-02-21T08:27:08.917Z,926.00
2023-02-21T08:28:07.842Z,931.00
2023-02-21T08:29:08.837Z,934.00
2023-02-21T08:30:08.849Z,939.00
2023-02-21T08:31:08.891Z,946.00
2023-02-21T08:32:07.886Z,951.00
2023-02-21T08:33:08.795Z,952.00
2023-02-21T08:34:08.829Z,953.00
2023-02-21T08:35:08.793Z,955.00
2023-02-21T08:36:07.780Z,960.00
2023-02-21T08:37:08.770Z,967.00
2023-02-21T08:38:07.764Z,976.00
2023-02-21T08:39:08.752Z,984.00
2023-02-21T08:40:07.748Z,992.00
2023-02-21T08:41:08.742Z,990.00
2023-02-21T08:42:08.738Z,988.00
2023-02-21T08:43:08.756Z,1027.00
2023-02-21T08:44:08.740Z,1046.00
2023-02-21T08:45:07.798Z,1072.00
2023-02-21T08:46:08.857Z,1074.00
2023-02-21T08:47:08.923Z,1072.00
2023-02-21T08:48:08.007Z,1081.00
2023-02-21T08:49:09.038Z,1083.00
2023-02-21T08:50:08.097Z,1088.00
2023-02-21T08:51:08.145Z,1158.00
2023-02-21T08:52:08.196Z,1441.00
2023-02-21T08:53:08.505Z,1217.00
2023-02-21T08:54:09.309Z,1248.00
2023-02-21T08:55:08.364Z,1231.00
2023-02-21T08:56:09.435Z,1236.00
2023-02-21T08:57:09.455Z,1234.00
2023-02-21T08:58:09.534Z,1233.00
2023-02-21T09:00:09.666Z,1233.00
2023-02-21T09:01:09.781Z,1228.00
2023-02-21T09:02:09.842Z,1343.00
2023-02-21T09:03:08.833Z,1294.00
2023-02-21T09:04:08.875Z,1268.00
2023-02-21T09:05:09.937Z,1262.00
2023-02-21T09:06:10.012Z,1259.00
2023-02-21T09:07:09.089Z,1249.00
2023-02-21T09:08:09.128Z,1252.00
2023-02-21T09:09:10.189Z,1242.00
2023-02-21T09:10:10.247Z,1249.00
2023-02-21T09:11:10.308Z,1226.00
2023-02-21T09:12:10.372Z,1202.00
2023-02-21T09:13:10.425Z,1190.00
2023-02-21T09:14:10.474Z,1168.00
2023-02-21T09:15:10.541Z,1141.00
2023-02-21T09:16:09.621Z,1132.00
2023-02-21T09:17:10.637Z,1110.00
2023-02-21T09:18:09.699Z,1086.00
2023-02-21T09:19:10.752Z,1068.00
2023-02-21T09:20:10.805Z,1063.00
2023-02-21T09:21:09.847Z,1049.00
2023-02-21T09:22:10.908Z,1041.00
2023-02-21T09:23:09.971Z,1032.00
2023-02-21T09:24:11.011Z,1017.00
2023-02-21T09:25:11.070Z,997.00
2023-02-21T09:26:11.129Z,978.00
2023-02-21T09:27:11.167Z,970.00
2023-02-21T09:28:11.228Z,963.00
2023-02-21T09:29:10.275Z,957.00
2023-02-21T09:30:11.412Z,942.00
2023-02-21T09:31:11.414Z,924.00
2023-02-21T09:32:11.448Z,931.00
2023-02-21T09:33:11.470Z,930.00
2023-02-21T09:35:11.567Z,912.00
2023-02-21T09:36:10.622Z,908.00
2023-02-21T09:37:11.664Z,903.00
2023-02-21T09:38:11.714Z,906.00
2023-02-21T09:39:11.773Z,900.00
2023-02-21T09:40:10.791Z,901.00
2023-02-21T09:41:11.843Z,899.00
2023-02-21T09:42:11.882Z,887.00
2023-02-21T09:43:11.933Z,874.00
2023-02-21T09:44:12.002Z,866.00
2023-02-21T09:45:12.048Z,872.00
2023-02-21T09:46:11.152Z,870.00
2023-02-21T09:47:12.202Z,862.00
2023-02-21T09:48:11.246Z,861.00
2023-02-21T09:49:12.289Z,859.00
2023-02-21T09:50:13.306Z,853.00
2023-02-21T09:51:12.721Z,847.00
2023-02-21T09:52:12.457Z,842.00
2023-02-21T09:53:12.499Z,833.00
2023-02-21T09:54:12.596Z,826.00
2023-02-21T09:55:12.613Z,824.00
2023-02-21T09:56:12.681Z,823.00
2023-02-21T09:57:11.778Z,811.00
2023-02-21T09:58:13.038Z,802.00
2023-02-21T09:59:12.840Z,797.00
2023-02-21T10:00:12.880Z,803.00
2023-02-21T10:01:13.448Z,807.00
2023-02-21T10:02:13.002Z,829.00
2023-02-21T10:03:13.084Z,828.00
2023-02-21T10:04:12.109Z,828.00
2023-02-21T10:05:13.157Z,827.00
2023-02-21T10:06:13.207Z,827.00
2023-02-21T10:07:13.286Z,843.00
2023-02-21T10:08:13.322Z,849.00
2023-02-21T10:09:12.366Z,851.00
2023-02-21T10:10:13.424Z,855.00
2023-02-21T10:11:13.844Z,859.00
2023-02-21T10:12:13.535Z,862.00
2023-02-21T10:13:12.616Z,858.00
2023-02-21T10:14:13.640Z,854.00
2023-02-21T10:15:13.702Z,855.00
2023-02-21T10:16:13.805Z,858.00
2023-02-21T10:17:13.820Z,864.00
2023-02-21T10:18:13.860Z,870.00
2023-02-21T10:19:12.946Z,878.00
2023-02-21T10:20:13.972Z,883.00
2023-02-21T10:21:14.332Z,881.00
2023-02-21T10:22:13.052Z,883.00
2023-02-21T10:23:14.095Z,885.00
2023-02-21T10:24:14.152Z,880.00
2023-02-21T10:25:14.168Z,879.00
2023-02-21T10:26:14.220Z,880.00
2023-02-21T10:27:14.259Z,883.00
2023-02-21T10:28:14.319Z,888.00
2023-02-21T10:29:14.359Z,889.00
2023-02-21T10:30:14.431Z,889.00
2023-02-21T10:31:14.856Z,893.00
2023-02-21T10:32:14.510Z,896.00
2023-02-21T10:33:14.503Z,892.00
2023-02-21T10:34:14.534Z,895.00
2023-02-21T10:35:13.598Z,930.00
2023-02-21T10:36:14.637Z,907.00
2023-02-21T10:37:13.741Z,913.00
2023-02-21T10:38:14.741Z,921.00
2023-02-21T10:39:14.765Z,933.00
2023-02-21T10:40:14.812Z,941.00
2023-02-21T10:41:15.205Z,1028.00
2023-02-21T10:42:14.911Z,1023.00
2023-02-21T10:43:14.955Z,993.00
2023-02-21T10:44:15.003Z,977.00
2023-02-21T10:45:14.038Z,967.00
2023-02-21T10:46:14.143Z,905.00
2023-02-21T10:47:15.127Z,882.00
2023-02-21T10:48:15.552Z,870.00
2023-02-21T10:49:15.247Z,867.00
2023-02-21T10:50:15.288Z,862.00
2023-02-21T10:51:15.739Z,855.00
2023-02-21T10:52:15.383Z,843.00
2023-02-21T10:53:14.597Z,828.00
2023-02-21T10:54:15.527Z,822.00
2023-02-21T10:55:31.420Z,821.00
2023-02-21T10:56:15.942Z,826.00
2023-02-21T10:57:14.537Z,826.00
2023-02-21T10:58:14.540Z,826.00
2023-02-21T11:00:15.531Z,827.00
2023-02-21T11:02:15.536Z,830.00
2023-02-21T11:03:15.500Z,835.00
2023-02-21T11:04:14.492Z,834.00
2023-02-21T11:05:14.473Z,836.00
2023-02-21T11:07:15.497Z,839.00
2023-02-21T11:09:15.571Z,839.00
2023-02-21T11:10:15.620Z,844.00
2023-02-21T11:11:15.891Z,847.00
2023-02-21T11:12:15.743Z,851.00
2023-02-21T11:14:15.815Z,858.00
2023-02-21T11:15:14.854Z,860.00
2023-02-21T11:16:15.968Z,863.00
2023-02-21T11:17:15.931Z,869.00
2023-02-21T11:18:14.993Z,872.00
2023-02-21T11:19:16.033Z,874.00
2023-02-21T11:20:17.042Z,877.00
2023-02-21T11:22:16.169Z,890.00
2023-02-21T11:23:16.652Z,896.00
2023-02-21T11:25:16.350Z,897.00
2023-02-21T11:26:15.352Z,898.00
2023-02-21T11:28:16.464Z,899.00
2023-02-21T11:29:15.498Z,901.00
2023-02-21T11:30:16.634Z,906.00
2023-02-21T11:31:17.063Z,907.00
2023-02-21T11:33:16.673Z,917.00
2023-02-21T11:34:16.723Z,918.00
2023-02-21T11:35:15.754Z,914.00
2023-02-21T11:36:16.781Z,918.00
2023-02-21T11:37:16.831Z,921.00
2023-02-21T11:39:15.946Z,928.00
2023-02-21T11:40:16.967Z,932.00
2023-02-21T11:41:16.375Z,933.00
2023-02-21T11:42:16.076Z,930.00
2023-02-21T11:43:17.559Z,936.00
2023-02-21T11:44:17.134Z,939.00
2023-02-21T11:46:16.367Z,947.00
2023-02-21T11:50:17.415Z,952.00
2023-02-21T11:51:17.633Z,952.00
2023-02-21T11:52:17.494Z,964.00
2023-02-21T11:53:17.527Z,968.00
2023-02-21T11:54:16.565Z,967.00
2023-02-21T11:55:17.641Z,963.00
2023-02-21T11:56:17.644Z,959.00
2023-02-21T11:57:16.693Z,961.00
2023-02-21T11:58:17.758Z,968.00
2023-02-21T11:59:17.775Z,963.00
2023-02-21T12:00:17.813Z,961.00
2023-02-21T12:01:17.856Z,960.00
2023-02-21T12:02:17.941Z,963.00
2023-02-21T12:03:16.946Z,963.00
2023-02-21T12:04:17.985Z,968.00
2023-02-21T12:05:18.050Z,975.00
2023-02-21T12:06:18.113Z,978.00
2023-02-21T12:07:18.114Z,979.00
2023-02-21T12:08:17.162Z,979.00
2023-02-21T12:09:18.195Z,980.00
2023-02-21T12:10:17.230Z,986.00
2023-02-21T12:11:17.724Z,990.00
2023-02-21T12:12:18.323Z,987.00
2023-02-21T12:13:17.456Z,984.00
2023-02-21T12:14:18.428Z,985.00
2023-02-21T12:15:18.468Z,984.00
2023-02-21T12:16:17.575Z,985.00
2023-02-21T12:17:18.566Z,985.00
2023-02-21T12:18:18.608Z,984.00
2023-02-21T12:19:18.645Z,984.00
2023-02-21T12:20:18.692Z,984.00
2023-02-21T12:21:18.754Z,981.00
2023-02-21T12:22:17.786Z,983.00
2023-02-21T12:23:17.829Z,989.00
2023-02-21T12:24:18.873Z,1000.00
2023-02-21T12:25:18.906Z,1008.00
2023-02-21T12:26:17.959Z,1012.00
2023-02-21T12:27:19.038Z,1017.00
2023-02-21T12:28:18.052Z,1024.00
2023-02-21T12:29:19.110Z,1028.00
2023-02-21T12:30:18.225Z,1030.00
2023-02-21T12:31:19.736Z,1033.00
2023-02-21T12:32:19.291Z,1038.00
2023-02-21T12:33:19.264Z,1043.00
2023-02-21T12:34:19.322Z,1050.00
2023-02-21T12:35:19.374Z,1044.00
2023-02-21T12:36:18.405Z,1036.00
2023-02-21T12:37:18.463Z,1026.00
2023-02-21T12:38:19.510Z,1015.00
2023-02-21T12:39:18.563Z,1006.00
2023-02-21T12:40:19.624Z,1004.00
2023-02-21T12:41:18.668Z,1004.00
2023-02-21T12:42:18.724Z,998.00
2023-02-21T12:43:18.791Z,997.00
2023-02-21T12:44:19.817Z,989.00
2023-02-21T12:45:19.849Z,987.00
2023-02-21T12:46:19.970Z,989.00
2023-02-21T12:47:19.969Z,990.00
2023-02-21T12:48:20.029Z,988.00
2023-02-21T12:49:20.073Z,985.00
2023-02-21T12:50:20.117Z,981.00
2023-02-21T12:51:20.157Z,985.00
2023-02-21T12:52:19.205Z,990.00
2023-02-21T12:53:20.257Z,989.00
2023-02-21T12:54:20.322Z,988.00
2023-02-21T12:55:19.351Z,982.00
2023-02-21T12:56:19.383Z,972.00
2023-02-21T12:57:20.442Z,969.00
2023-02-21T12:58:19.503Z,971.00
2023-02-21T12:59:20.630Z,965.00
2023-02-21T13:00:19.584Z,965.00
2023-02-21T13:01:22.016Z,960.00
2023-02-21T13:02:20.775Z,959.00
2023-02-21T13:03:20.821Z,958.00
2023-02-21T13:04:19.865Z,959.00
2023-02-21T13:05:20.920Z,959.00
2023-02-21T13:06:19.965Z,960.00
2023-02-21T13:07:21.024Z,958.00
2023-02-21T13:08:20.062Z,955.00
2023-02-21T13:09:20.110Z,954.00
2023-02-21T13:10:20.157Z,952.00
2023-02-21T13:11:20.233Z,948.00
2023-02-21T13:12:21.270Z,941.00
2023-02-21T13:13:21.303Z,935.00
2023-02-21T13:14:21.380Z,933.00
2023-02-21T13:15:20.431Z,927.00
2023-02-21T13:16:21.550Z,922.00
2023-02-21T13:17:21.524Z,922.00
2023-02-21T13:18:21.579Z,918.00
2023-02-21T13:19:21.614Z,914.00
2023-02-21T13:20:20.672Z,912.00
2023-02-21T13:21:21.587Z,908.00
2023-02-21T13:22:21.767Z,905.00
2023-02-21T13:23:20.838Z,899.00
2023-02-21T13:24:21.883Z,896.00
2023-02-21T13:25:21.928Z,894.00
2023-02-21T13:26:22.047Z,890.00
2023-02-21T13:27:22.029Z,889.00
2023-02-21T13:28:21.076Z,890.00
2023-02-21T13:29:22.130Z,889.00
2023-02-21T13:30:21.182Z,886.00
2023-02-21T13:31:22.461Z,885.00
2023-02-21T13:32:21.369Z,883.00
2023-02-21T13:33:22.325Z,879.00
2023-02-21T13:34:21.358Z,875.00
2023-02-21T13:35:22.421Z,868.00
2023-02-21T13:36:21.455Z,865.00
2023-02-21T13:37:21.515Z,864.00
2023-02-21T13:38:22.545Z,861.00
2023-02-21T13:39:22.621Z,858.00
2023-02-21T13:40:21.645Z,852.00
2023-02-21T13:41:22.691Z,852.00
2023-02-21T13:42:22.726Z,854.00
2023-02-21T13:43:21.778Z,853.00
2023-02-21T13:44:22.833Z,855.00
2023-02-21T13:45:22.880Z,857.00
2023-02-21T13:46:22.993Z,861.00
2023-02-21T13:47:22.014Z,864.00
2023-02-21T13:48:23.000Z,864.00
2023-02-21T13:49:22.063Z,864.00
2023-02-21T13:50:22.104Z,870.00
2023-02-21T13:51:23.140Z,872.00
2023-02-21T13:52:23.195Z,874.00
2023-02-21T13:53:22.251Z,878.00
2023-02-21T13:54:23.279Z,881.00
2023-02-21T13:55:23.325Z,886.00
2023-02-21T13:56:23.349Z,895.00
2023-02-21T13:57:22.373Z,902.00
2023-02-21T13:58:23.420Z,913.00
2023-02-21T13:59:23.467Z,917.00
2023-02-21T14:00:22.500Z,922.00
2023-02-21T14:01:22.614Z,933.00
2023-02-21T14:02:22.588Z,944.00
2023-02-21T14:03:23.667Z,957.00
2023-02-21T14:04:22.727Z,963.00
2023-02-21T14:05:22.707Z,964.00
2023-02-21T14:06:23.732Z,962.00
2023-02-21T14:07:22.772Z,965.00
2023-02-21T14:08:22.819Z,976.00
2023-02-21T14:09:23.864Z,988.00
2023-02-21T14:10:23.889Z,997.00
2023-02-21T14:11:23.978Z,995.00
2023-02-21T14:12:23.949Z,998.00
2023-02-21T14:13:22.983Z,1006.00
2023-02-21T14:14:23.020Z,1018.00
2023-02-21T14:15:23.054Z,1027.00
2023-02-21T14:16:24.127Z,1033.00
2023-02-21T14:17:23.130Z,1051.00
2023-02-21T14:18:23.155Z,1056.00
2023-02-21T14:19:23.219Z,1065.00
2023-02-21T14:20:24.216Z,1066.00
2023-02-21T14:21:24.243Z,1073.00
2023-02-21T14:22:23.270Z,1079.00
2023-02-21T14:23:24.295Z,1078.00
2023-02-21T14:24:24.330Z,1086.00
2023-02-21T14:25:24.360Z,1092.00
2023-02-21T14:26:24.413Z,1100.00
2023-02-21T14:27:24.418Z,1110.00
2023-02-21T14:28:23.445Z,1116.00
2023-02-21T14:29:24.500Z,1119.00
2023-02-21T14:30:24.534Z,1125.00
2023-02-21T14:31:24.585Z,1129.00
2023-02-21T14:32:23.608Z,1133.00
2023-02-21T14:33:24.590Z,1137.00
2023-02-21T14:34:24.626Z,1139.00
2023-02-21T14:35:24.682Z,1135.00
2023-02-21T14:36:24.693Z,1130.00
2023-02-21T14:37:23.696Z,1135.00
2023-02-21T14:38:23.722Z,1138.00
2023-02-21T14:39:23.750Z,1139.00
2023-02-21T14:40:23.774Z,1138.00
2023-02-21T14:41:24.819Z,1146.00
2023-02-21T14:42:24.851Z,1153.00
2023-02-21T14:43:24.871Z,1158.00
2023-02-21T14:44:24.895Z,1164.00
2023-02-21T14:45:24.217Z,1172.00
2023-02-21T14:46:23.969Z,1178.00
2023-02-21T14:47:24.993Z,1180.00
2023-02-21T14:48:24.028Z,1178.00
2023-02-21T14:49:24.048Z,1178.00
2023-02-21T14:50:25.067Z,1175.00
2023-02-21T14:51:24.128Z,1176.00
2023-02-21T14:52:25.139Z,1172.00
2023-02-21T14:53:24.158Z,1170.00
2023-02-21T14:54:25.202Z,1168.00
2023-02-21T14:55:25.221Z,1161.00
2023-02-21T14:56:25.252Z,1161.00
2023-02-21T14:57:25.286Z,1158.00
2023-02-21T14:58:25.318Z,1155.00
2023-02-21T14:59:24.356Z,1153.00
2023-02-21T15:00:25.380Z,1155.00
2023-02-21T15:01:25.528Z,1160.00
2023-02-21T15:02:25.524Z,1162.00
2023-02-21T15:03:24.490Z,1162.00
2023-02-21T15:04:24.540Z,1166.00
2023-02-21T15:05:25.572Z,1180.00
2023-02-21T15:06:25.639Z,1193.00
2023-02-21T15:07:24.644Z,1212.00
2023-02-21T15:08:24.682Z,1230.00
2023-02-21T15:09:24.714Z,1231.00
2023-02-21T15:10:24.776Z,1237.00
2023-02-21T15:11:26.521Z,1236.00
2023-02-21T15:12:25.835Z,1228.00
2023-02-21T15:13:25.852Z,1225.00
2023-02-21T15:14:24.950Z,1235.00
2023-02-21T15:15:25.956Z,1244.00
2023-02-21T15:16:26.028Z,1251.00
2023-02-21T15:17:25.993Z,1243.00
2023-02-21T15:18:25.032Z,1238.00
2023-02-21T15:19:26.073Z,1240.00
2023-02-21T15:20:26.089Z,1235.00
2023-02-21T15:21:25.122Z,1235.00
2023-02-21T15:22:26.165Z,1222.00
2023-02-21T15:23:26.159Z,1210.00
2023-02-21T15:24:26.187Z,1205.00
2023-02-21T15:25:25.223Z,1201.00
2023-02-21T15:26:25.270Z,1201.00
2023-02-21T15:27:26.284Z,1197.00
2023-02-21T15:28:26.312Z,1188.00
2023-02-21T15:29:26.347Z,1177.00
2023-02-21T15:30:26.469Z,1170.00
2023-02-21T15:31:26.440Z,1161.00
2023-02-21T15:32:26.454Z,1160.00
2023-02-21T15:33:26.514Z,1158.00
2023-02-21T15:34:25.528Z,1158.00
2023-02-21T15:35:25.576Z,1152.00
2023-02-21T15:36:26.621Z,1145.00
2023-02-21T15:37:26.674Z,1139.00
2023-02-21T15:38:26.748Z,1135.00
2023-02-21T15:39:25.770Z,1130.00
2023-02-21T15:40:26.820Z,1123.00
2023-02-21T15:41:25.879Z,1120.00
2023-02-21T15:42:25.923Z,1110.00
2023-02-21T15:43:26.961Z,1096.00
2023-02-21T15:44:27.062Z,1073.00
2023-02-21T15:45:27.086Z,1055.00
2023-02-21T15:46:27.262Z,1042.00
2023-02-21T15:47:27.182Z,1030.00
2023-02-21T15:48:27.259Z,1018.00
2023-02-21T15:49:27.318Z,1013.00
2023-02-21T15:50:27.470Z,1007.00
2023-02-21T15:51:26.436Z,1001.00
2023-02-21T15:52:27.482Z,990.00
2023-02-21T15:53:26.525Z,977.00
2023-02-21T15:54:27.577Z,957.00
2023-02-21T15:55:27.638Z,938.00
2023-02-21T15:56:26.578Z,924.00
2023-02-21T15:57:27.585Z,912.00
2023-02-21T15:58:27.593Z,883.00
2023-02-21T15:59:27.586Z,862.00
2023-02-21T16:01:26.671Z,816.00
2023-02-21T16:07:27.576Z,740.00
2023-02-21T16:11:26.624Z,701.00
2023-02-21T16:12:27.654Z,689.00
2023-02-21T16:13:27.652Z,680.00
2023-02-21T16:14:27.671Z,679.00
2023-02-21T16:15:27.783Z,676.00
2023-02-21T16:16:27.719Z,676.00
2023-02-21T16:17:26.744Z,675.00
2023-02-21T16:18:27.766Z,675.00
2023-02-21T16:19:26.789Z,672.00
2023-02-21T16:20:26.807Z,672.00
2023-02-21T16:21:27.838Z,671.00
2023-02-21T16:22:26.862Z,668.00
2023-02-21T16:23:27.913Z,667.00
2023-02-21T16:24:27.920Z,658.00
2023-02-21T16:25:27.969Z,649.00
2023-02-21T16:26:27.003Z,641.00
2023-02-21T16:27:28.014Z,639.00
2023-02-21T16:28:28.051Z,629.00
2023-02-21T16:29:28.070Z,625.00
